Time;durP1;ratioP1;P1;durP2;ratioP2;P2;SDS_P1;SDS_P2;PMS_P1;PMS_P2;Temp;Humidity;BMP_temperature;BMP_pressure;BME280_temperature;BME280_humidity;BME280_pressure;Samples;Min_cycle;Max_cycle;Signal;HPM_P1;HPM_P2
2021/03/28 00:02:27;;;;;;;35.40;9.50;;;;;;;3.98;73.00;99864.45;2118026;83;21143;-73
2021/03/28 00:05:28;;;;;;;26.37;6.58;;;;;;;3.91;72.64;99859.41;2117449;83;21317;-74
2021/03/28 00:08:30;;;;;;;27.85;7.33;;;;;;;3.86;72.57;99857.32;2121637;83;21293;-74
2021/03/28 00:11:32;;;;;;;22.25;6.03;;;;;;;3.78;72.59;99857.01;2133157;83;21308;-74
2021/03/28 00:14:34;;;;;;;22.58;5.47;;;;;;;3.69;72.53;99854.55;2136699;82;21321;-74
2021/03/28 00:17:36;;;;;;;26.50;7.12;;;;;;;3.59;72.56;99850.39;2145895;82;21752;-74
2021/03/28 00:20:38;;;;;;;27.27;6.72;;;;;;;3.49;72.81;99852.27;2112823;83;21776;-74
2021/03/28 00:23:40;;;;;;;30.82;7.25;;;;;;;3.37;72.83;99848.59;2112706;83;21302;-74
2021/03/28 00:26:42;;;;;;;30.30;7.85;;;;;;;3.30;73.01;99849.11;2120808;83;21277;-73
2021/03/28 00:29:44;;;;;;;30.12;7.30;;;;;;;3.23;73.17;99843.59;2127672;83;21376;-74
2021/03/28 00:32:47;;;;;;;31.35;8.33;;;;;;;3.12;73.32;99837.29;2111985;83;21737;-74
2021/03/28 00:35:49;;;;;;;28.57;7.47;;;;;;;3.07;73.27;99832.14;2116078;83;21313;-73
2021/03/28 00:38:51;;;;;;;28.75;6.85;;;;;;;3.02;73.26;99837.85;2103786;83;21717;-74
2021/03/28 00:41:53;;;;;;;30.35;8.00;;;;;;;2.95;73.24;99840.11;2123812;83;21286;-74
2021/03/28 00:44:55;;;;;;;27.05;7.08;;;;;;;2.92;73.37;99843.59;2121295;83;21352;-74
2021/03/28 00:47:57;;;;;;;27.05;6.25;;;;;;;2.92;73.05;99842.30;2127827;83;21305;-73
2021/03/28 00:50:59;;;;;;;22.70;6.08;;;;;;;2.93;73.05;99850.92;2124673;83;21179;-72
2021/03/28 00:54:00;;;;;;;21.07;5.75;;;;;;;2.92;73.08;99850.52;2123239;82;21352;-74
2021/03/28 00:57:02;;;;;;;24.02;5.83;;;;;;;2.86;73.10;99861.83;2119308;82;21641;-74
2021/03/28 01:00:05;;;;;;;23.18;6.30;;;;;;;2.76;73.34;99859.78;2087234;84;21709;-74
2021/03/28 01:03:09;;;;;;;25.95;6.37;;;;;;;2.72;73.44;99863.28;2113820;83;22045;-74
2021/03/28 01:06:11;;;;;;;21.02;5.30;;;;;;;2.64;73.56;99864.26;2117983;82;21742;-74
2021/03/28 01:09:13;;;;;;;21.93;5.03;;;;;;;2.60;73.71;99866.89;2124669;82;21730;-74
2021/03/28 01:12:15;;;;;;;18.65;4.72;;;;;;;2.49;74.42;99870.48;2126737;83;21738;-74
2021/03/28 01:15:20;;;;;;;18.35;4.30;;;;;;;2.38;74.85;99879.20;2122116;82;21758;-74
2021/03/28 01:18:21;;;;;;;20.02;4.87;;;;;;;2.31;74.96;99876.70;2119706;83;21338;-74
2021/03/28 01:21:23;;;;;;;20.70;5.08;;;;;;;2.21;75.28;99881.11;2116936;83;21320;-74
2021/03/28 01:24:25;;;;;;;19.42;4.50;;;;;;;2.18;75.35;99891.50;2128343;82;21305;-74
2021/03/28 01:27:27;;;;;;;19.55;4.67;;;;;;;2.18;75.35;99906.59;2120400;83;21341;-74
2021/03/28 01:30:29;;;;;;;20.17;4.95;;;;;;;2.17;75.07;99904.02;2120034;83;21352;-74
2021/03/28 01:33:31;;;;;;;18.05;4.72;;;;;;;2.15;74.89;99910.95;2117870;83;21733;-74
2021/03/28 01:36:33;;;;;;;21.48;4.78;;;;;;;2.13;74.71;99915.30;2149666;82;21157;-73
2021/03/28 01:39:35;;;;;;;18.77;4.10;;;;;;;2.10;74.47;99914.01;2144174;81;21348;-74
2021/03/28 01:42:37;;;;;;;21.48;5.35;;;;;;;2.15;74.04;99915.69;2146122;81;21729;-74
2021/03/28 01:45:39;;;;;;;24.32;5.80;;;;;;;2.17;74.00;99915.25;2098255;82;21765;-74
2021/03/28 01:48:41;;;;;;;21.65;5.05;;;;;;;2.14;73.81;99913.11;2124213;82;21172;-73
2021/03/28 01:51:43;;;;;;;24.23;5.58;;;;;;;2.10;73.80;99912.71;2117769;83;21329;-73
2021/03/28 01:54:45;;;;;;;19.45;4.42;;;;;;;2.03;73.92;99914.07;2121076;83;21330;-74
2021/03/28 01:57:47;;;;;;;21.33;4.95;;;;;;;1.99;74.06;99922.73;2118351;82;21401;-74
2021/03/28 02:00:49;;;;;;;23.95;5.45;;;;;;;2.02;73.84;99916.67;2122128;83;21293;-74
2021/03/28 02:03:51;;;;;;;17.87;4.65;;;;;;;2.02;73.81;99929.61;2119419;83;21381;-75
2021/03/28 02:06:53;;;;;;;24.63;4.75;;;;;;;1.97;73.83;99925.78;2111768;83;21322;-75
2021/03/28 02:09:55;;;;;;;20.90;4.80;;;;;;;1.93;73.66;99921.94;2121940;83;21313;-74
2021/03/28 02:12:57;;;;;;;23.62;5.78;;;;;;;1.82;73.96;99928.03;2092873;83;21743;-74
2021/03/28 02:15:59;;;;;;;23.92;5.37;;;;;;;1.75;74.08;99927.66;2140352;82;21737;-73
2021/03/28 02:19:01;;;;;;;23.00;5.37;;;;;;;1.68;74.18;99930.74;2157851;81;21742;-74
2021/03/28 02:22:03;;;;;;;19.40;4.42;;;;;;;1.61;74.57;99935.53;2139207;81;21769;-74
2021/03/28 02:25:05;;;;;;;22.50;4.95;;;;;;;1.56;74.94;99928.23;2140575;81;21302;-74
2021/03/28 02:28:07;;;;;;;;;;;;;;;1.54;74.81;99933.86;2138928;82;21170;-74
2021/03/28 02:31:09;;;;;;;20.85;4.33;;;;;;;1.47;74.78;99927.86;2146080;81;20432;-74
2021/03/28 02:34:14;;;;;;;21.85;5.00;;;;;;;1.44;74.98;99921.83;2143870;82;21313;-74
2021/03/28 02:37:23;;;;;;;23.67;5.27;;;;;;;1.42;74.87;99920.99;2152674;81;21288;-75
2021/03/28 02:40:25;;;;;;;19.90;4.97;;;;;;;1.37;75.32;99918.44;2135968;81;21724;-74
2021/03/28 02:43:27;;;;;;;25.70;5.20;;;;;;;1.32;75.18;99921.06;2142960;81;21724;-74
2021/03/28 02:46:29;;;;;;;22.82;5.53;;;;;;;1.29;75.25;99922.34;2152609;81;21742;-75
2021/03/28 02:49:32;;;;;;;22.20;5.05;;;;;;;1.32;75.19;99930.52;2141185;82;21725;-75
2021/03/28 02:52:34;;;;;;;26.55;6.03;;;;;;;1.28;75.23;99934.87;2131594;82;21360;-75
2021/03/28 02:55:35;;;;;;;26.85;6.10;;;;;;;1.20;75.29;99932.30;2117896;83;21770;-74
2021/03/28 02:58:37;;;;;;;20.52;4.78;;;;;;;1.15;75.41;99931.89;2102480;83;21758;-74
2021/03/28 03:01:39;;;;;;;23.25;4.90;;;;;;;1.12;75.46;99930.63;2148883;81;21305;-74
2021/03/28 03:04:41;;;;;;;17.80;4.58;;;;;;;1.10;75.56;99935.80;2145508;81;21309;-74
2021/03/28 03:07:43;;;;;;;23.00;5.10;;;;;;;1.05;76.00;99941.44;2149598;81;21303;-74
2021/03/28 03:10:47;;;;;;;20.37;6.03;;;;;;;1.09;75.58;99939.69;2154388;81;21745;-72
2021/03/28 03:13:49;;;;;;;24.27;6.67;;;;;;;1.07;75.64;99942.28;2136554;81;21308;-73
2021/03/28 03:16:51;;;;;;;32.80;9.50;;;;;;;1.06;76.28;99949.59;2123999;82;21737;-73
2021/03/28 03:19:53;;;;;;;36.88;9.63;;;;;;;1.08;75.98;99954.76;2144666;81;21297;-74
2021/03/28 03:22:55;;;;;;;32.33;8.55;;;;;;;1.13;75.51;99959.05;2135222;82;21313;-73
2021/03/28 03:25:57;;;;;;;33.45;9.78;;;;;;;1.17;75.29;99967.21;2143036;81;21297;-74
2021/03/28 03:28:59;;;;;;;42.13;11.03;;;;;;;1.19;75.21;99958.16;2201624;80;21297;-71
2021/03/28 03:32:01;;;;;;;35.83;10.20;;;;;;;1.16;75.42;99967.22;2198122;80;21312;-74
2021/03/28 03:35:02;;;;;;;33.42;8.95;;;;;;;1.10;75.68;99965.52;2191672;80;21184;-73
2021/03/28 03:38:04;;;;;;;30.15;8.33;;;;;;;1.07;75.65;99968.56;2197731;79;21295;-73
2021/03/28 03:41:06;;;;;;;28.30;7.90;;;;;;;1.07;75.61;99966.83;2209118;80;21287;-74
2021/03/28 03:44:08;;;;;;;27.77;7.35;;;;;;;1.07;75.36;99972.00;2212117;80;21295;-73
2021/03/28 03:47:10;;;;;;;27.07;6.17;;;;;;;1.08;75.60;99976.31;2195175;80;21288;-74
2021/03/28 03:50:13;;;;;;;21.93;5.95;;;;;;;1.06;75.65;99975.88;2193212;80;21292;-74
2021/03/28 03:53:15;;;;;;;22.98;5.97;;;;;;;1.08;75.70;99976.31;2189835;80;21307;-73
2021/03/28 03:56:17;;;;;;;23.83;6.90;;;;;;;1.08;75.18;99980.59;2207701;80;21144;-72
2021/03/28 03:59:19;;;;;;;27.87;7.60;;;;;;;1.03;75.23;99978.92;2198599;80;21331;-71
2021/03/28 04:02:20;;;;;;;30.32;8.55;;;;;;;1.07;74.81;99982.33;2203497;80;21335;-73
2021/03/28 04:05:22;;;;;;;24.70;6.17;;;;;;;1.08;74.65;99985.35;2164976;80;21292;-73
2021/03/28 04:08:24;;;;;;;23.27;6.20;;;;;;;1.12;74.75;99992.23;2194906;79;21300;-74
2021/03/28 04:11:26;;;;;;;25.95;6.17;;;;;;;1.12;74.45;100001.69;2181836;80;21731;-72
2021/03/28 04:14:28;;;;;;;22.00;5.85;;;;;;;1.11;74.52;100003.88;2202247;79;21735;-73
2021/03/28 04:17:30;;;;;;;24.47;6.17;;;;;;;1.06;74.90;100006.89;2206530;80;21276;-74
2021/03/28 04:20:33;;;;;;;25.02;6.92;;;;;;;1.02;74.87;100011.19;2184637;80;21641;-73
2021/03/28 04:23:35;;;;;;;26.70;6.55;;;;;;;0.97;74.46;100018.97;2196332;80;21327;-74
2021/03/28 04:26:38;;;;;;;27.15;7.45;;;;;;;0.98;74.84;100014.68;2204755;80;21291;-73
2021/03/28 04:29:39;;;;;;;24.57;6.17;;;;;;;0.93;74.74;100022.86;2192948;80;21300;-72
2021/03/28 04:32:41;;;;;;;26.37;6.67;;;;;;;0.86;75.20;100025.47;2199797;80;21291;-73
2021/03/28 04:35:44;;;;;;;24.40;6.37;;;;;;;0.85;75.13;100031.94;2199788;79;21170;-74
2021/03/28 04:38:46;;;;;;;22.73;6.30;;;;;;;0.79;76.09;100030.22;2199419;80;21300;-72
2021/03/28 04:41:49;;;;;;;21.82;6.25;;;;;;;0.75;76.49;100030.20;2193407;80;21609;-73
2021/03/28 04:44:51;;;;;;;28.10;7.00;;;;;;;0.75;76.15;100031.49;2194700;80;21283;-74
2021/03/28 04:47:53;;;;;;;27.62;7.62;;;;;;;0.77;76.72;100028.49;2213019;80;21130;-73
2021/03/28 04:50:55;;;;;;;27.15;7.85;;;;;;;0.86;75.84;100035.80;2170448;80;21283;-74
2021/03/28 04:53:57;;;;;;;28.50;7.97;;;;;;;0.94;75.71;100037.51;2212496;80;21319;-73
2021/03/28 04:57:00;;;;;;;25.52;8.18;;;;;;;0.99;76.32;100044.80;2167770;80;21275;-75
2021/03/28 05:00:02;;;;;;;24.37;7.55;;;;;;;1.09;76.29;100044.34;2194048;79;21340;-74
2021/03/28 05:03:04;;;;;;;26.33;7.35;;;;;;;1.15;76.09;100041.73;2193811;80;21378;-74
2021/03/28 05:06:06;;;;;;;26.33;6.70;;;;;;;1.20;76.19;100047.31;2177758;80;21333;-74
2021/03/28 05:09:08;;;;;;;24.43;7.40;;;;;;;1.23;76.44;100054.21;2192030;80;21284;-73
2021/03/28 05:12:10;;;;;;;24.27;7.85;;;;;;;1.26;76.22;100050.31;2189437;80;21319;-74
2021/03/28 05:15:12;;;;;;;30.32;8.90;;;;;;;1.35;76.50;100060.64;2162081;80;21302;-74
2021/03/28 05:18:14;;;;;;;31.15;10.60;;;;;;;1.42;76.32;100062.75;2193867;79;21798;-74
2021/03/28 05:21:16;;;;;;;29.00;10.15;;;;;;;1.52;76.26;100071.34;2203374;79;21326;-73
2021/03/28 05:24:18;;;;;;;24.70;9.25;;;;;;;1.57;76.31;100072.19;2206509;80;21725;-74
2021/03/28 05:27:20;;;;;;;27.87;8.23;;;;;;;1.60;76.54;100081.23;2194224;80;21732;-73
2021/03/28 05:30:22;;;;;;;27.75;7.62;;;;;;;1.64;76.40;100088.11;2214096;79;21700;-73
2021/03/28 05:33:24;;;;;;;21.30;7.00;;;;;;;1.72;76.29;100086.36;2207180;80;21819;-73
2021/03/28 05:36:26;;;;;;;22.13;6.35;;;;;;;1.83;76.33;100097.93;2183456;79;21299;-73
2021/03/28 05:39:28;;;;;;;22.85;7.30;;;;;;;1.89;76.24;100100.92;2194019;80;21284;-72
2021/03/28 05:42:30;;;;;;;23.73;7.12;;;;;;;1.96;76.34;100108.23;2178430;80;21358;-71
2021/03/28 05:45:32;;;;;;;22.32;6.70;;;;;;;2.01;76.09;100116.40;2198399;80;21284;-72
2021/03/28 05:48:34;;;;;;;19.82;5.55;;;;;;;2.12;76.18;100121.50;2183807;80;21296;-74
2021/03/28 05:51:38;;;;;;;23.85;7.10;;;;;;;2.23;75.55;100130.52;2181560;80;21772;-71
2021/03/28 05:54:40;;;;;;;21.80;6.17;;;;;;;2.30;75.87;100124.84;2186768;80;21742;-73
2021/03/28 05:57:42;;;;;;;23.67;7.00;;;;;;;2.44;75.50;100134.67;2207704;79;21759;-74
2021/03/28 06:00:44;;;;;;;23.52;7.45;;;;;;;2.54;75.38;100135.47;2184958;80;21303;-74
2021/03/28 06:03:46;;;;;;;23.67;7.17;;;;;;;2.66;75.33;100134.52;2196401;80;21295;-74
2021/03/28 06:06:49;;;;;;;24.05;6.87;;;;;;;2.76;74.91;100138.78;2195964;80;21594;-73
2021/03/28 06:09:51;;;;;;;23.27;6.67;;;;;;;2.86;75.41;100134.35;2192969;80;21639;-73
2021/03/28 06:12:54;;;;;;;23.18;6.37;;;;;;;2.87;74.98;100147.30;2190187;80;21299;-73
2021/03/28 06:15:56;;;;;;;22.15;6.83;;;;;;;2.90;75.72;100142.53;2185699;80;21759;-73
2021/03/28 06:18:58;;;;;;;20.95;6.28;;;;;;;3.06;75.54;100154.50;2199515;80;21161;-74
2021/03/28 06:22:00;;;;;;;23.12;6.85;;;;;;;3.34;74.27;100163.30;2208168;79;21315;-73
2021/03/28 06:25:02;;;;;;;22.17;7.03;;;;;;;3.49;75.48;100157.08;2192288;80;21158;-73
2021/03/28 06:28:04;;;;;;;22.73;6.33;;;;;;;3.52;73.46;100164.86;2203995;80;21316;-74
2021/03/28 06:31:06;;;;;;;20.65;6.75;;;;;;;3.50;73.33;100163.16;2180169;80;21169;-72
2021/03/28 06:34:08;;;;;;;21.40;6.65;;;;;;;3.58;73.25;100169.13;2192859;80;21636;-74
2021/03/28 06:37:11;;;;;;;20.02;6.17;;;;;;;3.46;73.11;100167.08;2200579;79;21359;-73
2021/03/28 06:40:15;;;;;;;22.42;6.85;;;;;;;3.59;73.40;100174.72;2193357;80;21153;-74
2021/03/28 06:43:18;;;;;;;24.67;7.50;;;;;;;3.68;74.27;100169.44;2194466;80;21347;-73
2021/03/28 06:46:20;;;;;;;20.82;6.78;;;;;;;3.59;73.16;100172.12;2189920;80;21174;-73
2021/03/28 06:49:22;;;;;;;24.70;7.50;;;;;;;3.54;72.51;100169.58;2169859;80;21589;-74
2021/03/28 06:52:24;;;;;;;23.12;7.28;;;;;;;3.53;73.19;100174.78;2200505;80;21154;-70
2021/03/28 06:55:26;;;;;;;20.62;6.45;;;;;;;3.53;73.50;100176.94;2205786;80;21316;-72
2021/03/28 06:58:28;;;;;;;22.93;7.28;;;;;;;3.53;73.69;100182.13;2176421;80;21300;-72
2021/03/28 07:01:30;;;;;;;21.40;6.70;;;;;;;3.63;75.49;100182.89;2192883;80;21767;-73
2021/03/28 07:04:32;;;;;;;21.50;7.10;;;;;;;3.93;73.51;100169.14;2187454;80;21343;-74
2021/03/28 07:07:35;;;;;;;20.17;6.40;;;;;;;3.91;73.34;100171.76;2195866;80;21756;-73
2021/03/28 07:10:37;;;;;;;24.20;7.08;;;;;;;4.12;71.83;100196.61;2185118;81;21334;-73
2021/03/28 07:13:39;;;;;;;21.10;6.95;;;;;;;4.21;71.49;100185.66;2202078;80;21339;-72
2021/03/28 07:16:41;;;;;;;22.98;7.37;;;;;;;4.25;71.17;100201.62;2177979;80;21296;-74
2021/03/28 07:19:43;;;;;;;23.45;7.37;;;;;;;4.35;72.48;100194.13;2186898;80;21557;-72
2021/03/28 07:22:45;;;;;;;20.90;6.62;;;;;;;4.58;70.04;100183.41;2181560;80;21316;-72
2021/03/28 07:25:48;;;;;;;22.42;7.47;;;;;;;4.65;69.87;100186.33;2174653;80;21278;-74
2021/03/28 07:28:50;;;;;;;21.97;6.42;;;;;;;4.76;69.37;100180.98;2184293;80;21293;-72
2021/03/28 07:31:52;;;;;;;22.93;6.75;;;;;;;4.83;71.44;100183.05;2180501;80;21169;-73
2021/03/28 07:34:54;;;;;;;19.90;6.42;;;;;;;5.06;70.34;100192.20;2195574;80;21325;-74
2021/03/28 07:37:56;;;;;;;19.40;5.72;;;;;;;5.00;67.69;100191.89;2208382;79;22341;-71
2021/03/28 07:40:58;;;;;;;21.68;6.20;;;;;;;5.08;67.57;100200.86;2189688;80;21732;-74
2021/03/28 07:44:00;;;;;;;21.05;5.90;;;;;;;5.28;67.34;100209.63;2190569;80;21277;-72
2021/03/28 07:47:02;;;;;;;18.92;5.75;;;;;;;5.50;66.72;100196.66;2198753;80;21299;-73
2021/03/28 07:50:04;;;;;;;18.05;4.50;;;;;;;5.30;68.08;100202.22;2179678;80;21837;-73
2021/03/28 07:53:07;;;;;;;19.70;5.17;;;;;;;5.48;67.33;100217.94;2187759;80;21237;-72
2021/03/28 07:56:09;;;;;;;18.10;5.47;;;;;;;5.48;66.30;100202.77;2190367;80;21725;-73
2021/03/28 07:59:11;;;;;;;17.40;4.90;;;;;;;5.84;66.83;100196.00;2207893;80;21732;-73
2021/03/28 08:02:13;;;;;;;21.57;5.12;;;;;;;5.97;64.32;100185.34;2196472;80;21296;-73
2021/03/28 08:05:15;;;;;;;20.90;5.17;;;;;;;5.63;65.27;100205.52;2196393;80;21165;-72
2021/03/28 08:08:17;;;;;;;18.48;5.20;;;;;;;5.59;66.01;100204.73;2186128;80;21296;-74
2021/03/28 08:11:19;;;;;;;15.68;4.65;;;;;;;5.99;65.82;100204.42;2195989;80;21323;-74
2021/03/28 08:14:21;;;;;;;16.35;4.67;;;;;;;5.93;63.94;100207.98;2212079;80;21721;-73
2021/03/28 08:17:23;;;;;;;20.92;5.80;;;;;;;5.90;64.26;100215.43;2198843;80;21296;-73
2021/03/28 08:20:25;;;;;;;18.15;4.60;;;;;;;5.91;64.54;100209.77;2198754;80;21288;-71
2021/03/28 08:23:27;;;;;;;18.55;5.00;;;;;;;5.97;64.26;100208.79;2165598;80;21288;-74
2021/03/28 08:26:29;;;;;;;18.23;4.87;;;;;;;5.94;62.40;100218.81;2194089;79;21308;-74
2021/03/28 08:29:31;;;;;;;20.15;4.97;;;;;;;6.26;62.59;100217.78;2186233;80;21705;-71
2021/03/28 08:32:33;;;;;;;19.00;4.90;;;;;;;6.22;63.66;100207.43;2197585;80;21715;-72
2021/03/28 08:35:35;;;;;;;22.22;5.37;;;;;;;6.57;65.49;100214.08;2207647;80;21752;-74
2021/03/28 08:38:37;;;;;;;21.45;5.10;;;;;;;6.68;61.72;100205.56;2204986;80;21731;-73
2021/03/28 08:41:39;;;;;;;18.73;4.47;;;;;;;6.73;61.92;100221.09;2206550;79;21281;-74
2021/03/28 08:44:41;;;;;;;18.00;4.90;;;;;;;6.80;60.36;100218.76;2212235;80;23171;-74
2021/03/28 08:47:43;;;;;;;20.90;4.58;;;;;;;6.59;60.96;100200.55;2199026;80;21542;-73
2021/03/28 08:50:45;;;;;;;18.50;4.67;;;;;;;6.67;61.05;100213.42;2182538;80;21300;-73
2021/03/28 08:53:47;;;;;;;20.43;5.30;;;;;;;7.16;61.71;100207.48;2190295;80;21300;-73
2021/03/28 08:56:49;;;;;;;17.48;4.60;;;;;;;7.23;60.53;100202.06;2204797;79;21314;-73
2021/03/28 08:59:52;;;;;;;19.50;4.95;;;;;;;7.21;58.56;100226.05;2191278;80;21157;-74
2021/03/28 09:02:55;;;;;;;18.98;4.83;;;;;;;7.00;57.82;100222.20;2194940;80;21739;-73
2021/03/28 09:05:57;;;;;;;19.10;5.33;;;;;;;6.76;58.68;100211.90;2188921;80;21731;-72
2021/03/28 09:09:00;;;;;;;18.05;4.83;;;;;;;6.82;60.93;100222.63;2191549;80;21316;-70
2021/03/28 09:12:03;;;;;;;17.65;4.67;;;;;;;7.00;58.55;100206.55;2161459;79;21114;-70
2021/03/28 09:15:05;;;;;;;;;;;;;;;7.40;60.31;100208.62;2213698;80;21150;-72
2021/03/28 09:18:07;;;;;;;16.35;4.17;;;;;;;7.59;53.63;100222.05;2202874;80;20135;-74
2021/03/28 09:21:09;;;;;;;17.90;4.45;;;;;;;7.03;55.95;100227.80;2171716;80;21708;-73
2021/03/28 09:24:11;;;;;;;18.02;5.00;;;;;;;6.84;57.03;100224.75;2205865;80;21747;-72
2021/03/28 09:27:13;;;;;;;19.65;4.97;;;;;;;6.77;58.08;100220.14;2194561;80;21189;-73
2021/03/28 09:30:15;;;;;;;16.90;4.40;;;;;;;7.51;58.00;100213.09;2191950;80;21170;-73
2021/03/28 09:33:17;;;;;;;15.53;4.08;;;;;;;8.18;58.08;100208.22;2190048;80;21586;-73
2021/03/28 09:36:19;;;;;;;18.73;4.70;;;;;;;7.90;53.67;100225.12;2169639;80;21280;-74
2021/03/28 09:39:21;;;;;;;18.95;4.50;;;;;;;7.44;56.07;100224.16;2194623;79;21288;-73
2021/03/28 09:42:23;;;;;;;14.68;4.00;;;;;;;7.10;56.62;100222.84;2200410;80;21772;-74
2021/03/28 09:45:26;;;;;;;18.42;4.05;;;;;;;7.01;55.91;100228.27;2180047;80;21735;-74
2021/03/28 09:48:31;;;;;;;17.62;4.40;;;;;;;7.08;55.33;100228.10;2161204;80;21154;-73
2021/03/28 09:51:33;;;;;;;17.57;3.90;;;;;;;7.53;57.07;100220.88;2190011;80;21287;-72
2021/03/28 09:54:35;;;;;;;18.57;4.25;;;;;;;7.50;53.54;100234.02;2186260;80;21284;-74
2021/03/28 09:57:38;;;;;;;15.68;3.77;;;;;;;7.62;54.59;100235.02;2206091;80;21169;-73
2021/03/28 10:00:40;;;;;;;19.17;4.72;;;;;;;7.51;54.97;100223.99;2198045;80;21157;-74
2021/03/28 10:03:43;;;;;;;14.03;3.72;;;;;;;7.42;55.34;100225.09;2202261;80;21161;-73
2021/03/28 10:06:45;;;;;;;19.40;4.58;;;;;;;7.26;53.82;100235.91;2180302;80;21578;-74
2021/03/28 10:09:47;;;;;;;16.82;4.28;;;;;;;7.13;54.47;100237.58;2188544;80;21284;-73
2021/03/28 10:12:49;;;;;;;13.13;3.70;;;;;;;7.09;56.72;100242.84;2198132;80;21284;-73
2021/03/28 10:15:51;;;;;;;14.75;4.08;;;;;;;7.23;54.50;100239.91;2204446;80;21280;-73
2021/03/28 10:18:53;;;;;;;17.25;3.87;;;;;;;7.27;57.84;100223.28;2201118;80;21379;-74
2021/03/28 10:21:55;;;;;;;20.10;4.45;;;;;;;7.35;54.84;100232.20;2203633;80;21325;-73
2021/03/28 10:24:57;;;;;;;18.45;4.87;;;;;;;7.18;54.00;100231.31;2211671;80;21142;-73
2021/03/28 10:27:59;;;;;;;18.02;3.62;;;;;;;7.21;54.31;100229.09;2185359;80;21272;-74
2021/03/28 10:31:01;;;;;;;14.78;3.70;;;;;;;7.58;55.30;100234.69;2184132;80;21751;-74
2021/03/28 10:34:03;;;;;;;12.43;3.60;;;;;;;8.02;51.92;100240.47;2182593;80;21307;-74
2021/03/28 10:37:05;;;;;;;12.50;3.35;;;;;;;7.76;51.30;100246.41;2159094;80;21277;-74
2021/03/28 10:40:07;;;;;;;15.35;3.83;;;;;;;7.63;52.10;100256.33;2192668;80;21597;-74
2021/03/28 10:43:10;;;;;;;14.87;3.62;;;;;;;7.58;54.05;100234.22;2201858;79;21150;-72
2021/03/28 10:46:12;;;;;;;13.55;3.60;;;;;;;7.58;52.17;100232.92;2195558;80;21332;-74
2021/03/28 10:49:14;;;;;;;13.10;3.40;;;;;;;8.09;51.14;100215.88;2196305;80;21287;-70
2021/03/28 10:52:16;;;;;;;12.10;3.12;;;;;;;8.68;48.75;100208.95;2191629;80;21284;-70
2021/03/28 10:55:18;;;;;;;18.52;4.12;;;;;;;8.80;49.00;100188.08;2191958;80;21355;-72
2021/03/28 10:58:20;;;;;;;13.83;3.37;;;;;;;8.83;48.82;100228.53;2162415;80;22654;-72
2021/03/28 11:01:22;;;;;;;15.13;3.58;;;;;;;8.74;47.40;100226.21;2184134;80;21336;-70
2021/03/28 11:04:25;;;;;;;;;;;;;;;8.38;48.03;100227.23;2200375;80;21184;-71
2021/03/28 11:07:27;;;;;;;18.67;4.20;;;;;;;8.55;49.60;100237.66;2154284;81;20222;-72
2021/03/28 11:10:29;;;;;;;14.53;3.87;;;;;;;8.94;47.73;100222.97;2191175;80;21284;-71
2021/03/28 11:13:31;;;;;;;18.17;4.20;;;;;;;9.26;46.97;100229.75;2193207;80;21753;-73
2021/03/28 11:16:33;;;;;;;18.23;4.12;;;;;;;9.38;48.69;100208.00;2195421;80;21300;-72
2021/03/28 11:19:35;;;;;;;16.70;4.50;;;;;;;9.63;48.24;100210.17;2210445;80;21272;-70
2021/03/28 11:22:37;;;;;;;16.77;3.60;;;;;;;9.30;47.56;100207.80;2209083;80;21284;-72
2021/03/28 11:25:39;;;;;;;19.00;4.20;;;;;;;9.65;47.85;100203.10;2203349;80;21300;-72
2021/03/28 11:28:41;;;;;;;15.78;3.90;;;;;;;10.30;46.64;100198.59;2193589;80;21382;-72
2021/03/28 11:31:43;;;;;;;14.13;3.45;;;;;;;10.49;43.82;100194.39;2193693;80;21300;-70
2021/03/28 11:34:45;;;;;;;17.27;3.70;;;;;;;10.26;44.24;100199.17;2189602;80;21293;-70
2021/03/28 11:37:47;;;;;;;15.10;3.65;;;;;;;10.39;43.21;100192.57;2196888;79;21308;-73
2021/03/28 11:40:50;;;;;;;10.35;3.20;;;;;;;10.24;43.12;100195.73;2202772;80;21311;-72
2021/03/28 11:43:52;;;;;;;12.65;3.10;;;;;;;10.52;42.24;100197.36;2200055;80;21299;-70
2021/03/28 11:46:54;;;;;;;14.58;3.35;;;;;;;10.65;42.08;100197.27;2186830;80;21324;-72
2021/03/28 11:49:56;;;;;;;18.00;3.60;;;;;;;10.63;42.70;100168.06;2194889;80;21304;-70
2021/03/28 11:52:58;;;;;;;12.95;3.83;;;;;;;10.94;39.94;100199.17;2195297;80;21296;-71
2021/03/28 11:56:01;;;;;;;16.15;3.72;;;;;;;10.34;41.37;100190.59;2188826;80;21629;-70
2021/03/28 11:59:03;;;;;;;17.67;4.05;;;;;;;10.20;42.67;100170.55;2184815;80;21283;-70
2021/03/28 12:02:05;;;;;;;13.25;3.17;;;;;;;10.72;42.45;100171.17;2196139;80;21316;-73
2021/03/28 12:05:09;;;;;;;14.50;3.77;;;;;;;10.37;41.12;100195.72;2191650;79;21296;-71
2021/03/28 12:08:11;;;;;;;15.23;3.40;;;;;;;10.58;42.75;100185.30;2178629;80;21272;-71
2021/03/28 12:11:13;;;;;;;18.27;3.95;;;;;;;10.76;41.17;100192.91;2181107;80;21296;-72
2021/03/28 12:14:15;;;;;;;17.87;3.75;;;;;;;10.65;41.19;100195.95;2193094;80;21755;-73
2021/03/28 12:17:17;;;;;;;11.73;2.83;;;;;;;10.68;40.07;100198.91;2205389;80;21296;-71
2021/03/28 12:20:19;;;;;;;15.32;3.70;;;;;;;10.92;39.81;100199.24;2201271;80;21280;-71
2021/03/28 12:23:21;;;;;;;13.68;3.25;;;;;;;11.34;39.77;100182.23;2208045;80;21307;-72
2021/03/28 12:26:23;;;;;;;15.25;3.50;;;;;;;11.35;39.43;100186.11;2212803;80;21697;-69
2021/03/28 12:29:25;;;;;;;12.23;2.92;;;;;;;11.43;38.82;100193.66;2194280;80;21269;-72
2021/03/28 12:32:27;;;;;;;14.50;3.52;;;;;;;11.73;39.46;100177.48;2198027;80;21308;-71
2021/03/28 12:35:29;;;;;;;15.85;3.55;;;;;;;10.91;39.28;100197.52;2188378;79;21297;-70
2021/03/28 12:38:33;;;;;;;9.88;2.60;;;;;;;10.53;40.01;100195.11;2199305;79;21276;-72
2021/03/28 12:41:35;;;;;;;14.13;3.47;;;;;;;10.58;39.74;100182.67;2185119;80;21283;-72
2021/03/28 12:44:37;;;;;;;;;;;;;;;11.06;39.37;100194.75;2201905;80;21299;-73
2021/03/28 12:47:39;;;;;;;14.63;3.37;;;;;;;11.42;40.67;100196.75;2199150;80;20227;-71
2021/03/28 12:50:41;;;;;;;14.45;3.35;;;;;;;10.84;40.36;100189.97;2192368;80;21307;-70
2021/03/28 12:53:43;;;;;;;12.28;3.22;;;;;;;10.36;40.06;100194.47;2197257;80;21354;-71
2021/03/28 12:56:46;;;;;;;14.25;3.05;;;;;;;9.93;40.31;100186.84;2179547;80;21311;-72
2021/03/28 12:59:47;;;;;;;13.45;3.33;;;;;;;9.57;41.26;100201.66;2199310;80;21281;-71
2021/03/28 13:02:50;;;;;;;15.65;3.58;;;;;;;9.35;42.73;100186.26;2199845;80;21735;-72
2021/03/28 13:05:52;;;;;;;15.48;3.62;;;;;;;9.19;42.26;100198.14;2189779;80;21283;-73
2021/03/28 13:08:54;;;;;;;14.25;3.33;;;;;;;9.08;42.61;100191.97;2194419;80;21364;-73
2021/03/28 13:11:57;;;;;;;14.15;3.30;;;;;;;9.05;43.55;100196.44;2206467;80;21617;-74
2021/03/28 13:14:59;;;;;;;16.42;3.58;;;;;;;9.10;44.03;100199.77;2197567;79;21161;-73
2021/03/28 13:18:01;;;;;;;15.00;3.37;;;;;;;9.13;44.05;100212.28;2205724;79;21740;-73
2021/03/28 13:21:03;;;;;;;14.78;3.17;;;;;;;9.21;42.61;100191.11;2193818;80;21291;-74
2021/03/28 13:24:05;;;;;;;16.00;3.15;;;;;;;9.41;41.96;100185.19;2193250;80;21311;-73
2021/03/28 13:27:09;;;;;;;13.78;3.33;;;;;;;9.47;42.58;100199.84;2203991;80;21279;-74
2021/03/28 13:30:11;;;;;;;15.72;3.12;;;;;;;9.63;42.73;100178.73;2210673;80;21731;-73
2021/03/28 13:33:13;;;;;;;15.60;3.50;;;;;;;9.91;41.48;100181.66;2197972;80;21157;-74
2021/03/28 13:36:15;;;;;;;18.07;3.62;;;;;;;9.75;41.85;100183.98;2205969;80;21293;-73
2021/03/28 13:39:19;;;;;;;;;;;;;;;9.60;42.59;100189.80;2206548;80;21846;-73
2021/03/28 13:42:21;;;;;;;;;;;;;;;9.51;41.47;100187.02;2213846;80;20219;-74
2021/03/28 13:45:23;;;;;;;17.48;3.22;;;;;;;9.50;42.08;100186.17;2191009;79;20165;-73
2021/03/28 13:48:26;;;;;;;15.93;3.60;;;;;;;9.41;41.60;100194.36;2206828;80;21744;-73
2021/03/28 13:51:28;;;;;;;15.15;3.25;;;;;;;9.36;42.60;100193.65;2190539;80;21276;-73
2021/03/28 13:54:30;;;;;;;16.12;3.40;;;;;;;9.33;41.86;100197.69;2173338;80;21284;-73
2021/03/28 13:57:32;;;;;;;18.10;4.67;;;;;;;9.33;42.91;100190.67;2194529;80;21158;-74
2021/03/28 14:00:34;;;;;;;19.48;3.40;;;;;;;9.35;42.98;100190.62;2171763;80;21271;-74
2021/03/28 14:03:36;;;;;;;12.50;3.33;;;;;;;9.27;43.34;100193.97;2182750;80;21300;-73
2021/03/28 14:06:38;;;;;;;14.47;3.60;;;;;;;9.20;43.82;100195.94;2188577;80;21308;-73
2021/03/28 14:09:40;;;;;;;17.45;3.80;;;;;;;9.18;44.33;100197.76;2191357;80;21696;-73
2021/03/28 14:12:43;;;;;;;19.95;3.55;;;;;;;9.14;44.10;100180.44;2191957;80;21150;-71